sensor_id;sensor_type;location;lat;lon;timestamp;temperature;humidity
15625;DHT22;7912;51.376;6.126;2022-11-11T00:01:56;11.90;99.90
15625;DHT22;7912;51.376;6.126;2022-11-11T00:04:25;11.90;99.90
15625;DHT22;7912;51.376;6.126;2022-11-11T00:06:53;11.90;99.90
15625;DHT22;7912;51.376;6.126;2022-11-11T00:09:21;11.80;99.90
15625;DHT22;7912;51.376;6.126;2022-11-11T00:11:48;11.80;99.90
15625;DHT22;7912;51.376;6.126;2022-11-11T00:14:15;11.80;99.90
15625;DHT22;7912;51.376;6.126;2022-11-11T00:16:43;11.80;99.90
15625;DHT22;7912;51.376;6.126;2022-11-11T00:19:29;11.80;99.90
15625;DHT22;7912;51.376;6.126;2022-11-11T00:22:24;11.70;99.90
15625;DHT22;7912;51.376;6.126;2022-11-11T00:25:12;11.70;99.90
15625;DHT22;7912;51.376;6.126;2022-11-11T00:27:41;11.70;99.90
15625;DHT22;7912;51.376;6.126;2022-11-11T00:30:09;11.70;99.90
15625;DHT22;7912;51.376;6.126;2022-11-11T00:32:36;11.70;99.90
15625;DHT22;7912;51.376;6.126;2022-11-11T00:35:04;11.60;99.90
15625;DHT22;7912;51.376;6.126;2022-11-11T00:37:50;11.60;99.90
15625;DHT22;7912;51.376;6.126;2022-11-11T00:40:17;11.60;99.90
15625;DHT22;7912;51.376;6.126;2022-11-11T00:42:45;11.60;99.90
15625;DHT22;7912;51.376;6.126;2022-11-11T00:45:12;11.50;99.90
15625;DHT22;7912;51.376;6.126;2022-11-11T00:47:47;11.50;99.90
15625;DHT22;7912;51.376;6.126;2022-11-11T00:50:33;11.50;99.90
15625;DHT22;7912;51.376;6.126;2022-11-11T00:53:24;11.50;99.90
15625;DHT22;7912;51.376;6.126;2022-11-11T00:55:58;11.50;99.90
15625;DHT22;7912;51.376;6.126;2022-11-11T00:58:26;11.50;99.90
15625;DHT22;7912;51.376;6.126;2022-11-11T01:00:55;11.40;99.90
15625;DHT22;7912;51.376;6.126;2022-11-11T01:03:22;11.40;99.90
15625;DHT22;7912;51.376;6.126;2022-11-11T01:05:50;11.40;99.90
15625;DHT22;7912;51.376;6.126;2022-11-11T01:08:17;11.40;99.90
15625;DHT22;7912;51.376;6.126;2022-11-11T01:10:45;11.40;99.90
15625;DHT22;7912;51.376;6.126;2022-11-11T01:13:20;11.40;99.90
15625;DHT22;7912;51.376;6.126;2022-11-11T01:15:51;11.40;99.90
15625;DHT22;7912;51.376;6.126;2022-11-11T01:18:25;11.40;99.90
15625;DHT22;7912;51.376;6.126;2022-11-11T01:23:39;11.40;99.90
15625;DHT22;7912;51.376;6.126;2022-11-11T01:26:18;11.40;99.90
15625;DHT22;7912;51.376;6.126;2022-11-11T01:28:57;11.50;99.90
15625;DHT22;7912;51.376;6.126;2022-11-11T01:31:26;11.50;99.90
15625;DHT22;7912;51.376;6.126;2022-11-11T01:33:54;11.50;99.90
15625;DHT22;7912;51.376;6.126;2022-11-11T01:36:26;11.50;99.90
15625;DHT22;7912;51.376;6.126;2022-11-11T01:38:56;11.50;99.90
15625;DHT22;7912;51.376;6.126;2022-11-11T01:41:35;11.50;99.90
15625;DHT22;7912;51.376;6.126;2022-11-11T01:49:52;11.40;99.90
15625;DHT22;7912;51.376;6.126;2022-11-11T01:57:57;11.30;99.90
15625;DHT22;7912;51.376;6.126;2022-11-11T02:00:29;11.30;99.90
15625;DHT22;7912;51.376;6.126;2022-11-11T02:03:05;11.30;99.90
15625;DHT22;7912;51.376;6.126;2022-11-11T02:05:36;11.30;99.90
15625;DHT22;7912;51.376;6.126;2022-11-11T02:11:12;11.30;99.90
15625;DHT22;7912;51.376;6.126;2022-11-11T02:14:03;11.30;99.90
15625;DHT22;7912;51.376;6.126;2022-11-11T02:16:50;11.30;99.90
15625;DHT22;7912;51.376;6.126;2022-11-11T02:19:21;11.40;99.90
15625;DHT22;7912;51.376;6.126;2022-11-11T02:22:30;11.40;99.90
15625;DHT22;7912;51.376;6.126;2022-11-11T02:25:20;11.30;99.90
15625;DHT22;7912;51.376;6.126;2022-11-11T02:27:51;11.40;99.90
15625;DHT22;7912;51.376;6.126;2022-11-11T02:30:25;11.40;99.90
15625;DHT22;7912;51.376;6.126;2022-11-11T02:32:53;11.30;99.90
15625;DHT22;7912;51.376;6.126;2022-11-11T02:35:34;11.40;99.90
15625;DHT22;7912;51.376;6.126;2022-11-11T02:38:05;11.30;99.90
15625;DHT22;7912;51.376;6.126;2022-11-11T02:40:42;11.30;99.90
15625;DHT22;7912;51.376;6.126;2022-11-11T02:43:32;11.30;99.90
15625;DHT22;7912;51.376;6.126;2022-11-11T02:46:02;11.30;99.90
15625;DHT22;7912;51.376;6.126;2022-11-11T02:48:31;11.30;99.90
15625;DHT22;7912;51.376;6.126;2022-11-11T02:50:59;11.30;99.90
15625;DHT22;7912;51.376;6.126;2022-11-11T02:53:26;11.30;99.90
15625;DHT22;7912;51.376;6.126;2022-11-11T02:55:55;11.30;99.90
15625;DHT22;7912;51.376;6.126;2022-11-11T02:58:22;11.20;99.90
15625;DHT22;7912;51.376;6.126;2022-11-11T03:00:50;11.20;99.90
15625;DHT22;7912;51.376;6.126;2022-11-11T03:03:17;11.20;99.90
15625;DHT22;7912;51.376;6.126;2022-11-11T03:05:45;11.10;99.90
15625;DHT22;7912;51.376;6.126;2022-11-11T03:08:12;11.10;99.90
15625;DHT22;7912;51.376;6.126;2022-11-11T03:10:40;11.10;99.90
15625;DHT22;7912;51.376;6.126;2022-11-11T03:13:08;11.10;99.90
15625;DHT22;7912;51.376;6.126;2022-11-11T03:15:35;11.10;99.90
15625;DHT22;7912;51.376;6.126;2022-11-11T03:18:03;11.10;99.90
15625;DHT22;7912;51.376;6.126;2022-11-11T03:20:30;11.00;99.90
15625;DHT22;7912;51.376;6.126;2022-11-11T03:23:16;11.00;99.90
15625;DHT22;7912;51.376;6.126;2022-11-11T03:25:46;10.90;99.90
15625;DHT22;7912;51.376;6.126;2022-11-11T03:28:23;10.90;99.90
15625;DHT22;7912;51.376;6.126;2022-11-11T03:30:52;10.90;99.90
15625;DHT22;7912;51.376;6.126;2022-11-11T03:33:20;10.90;99.90
15625;DHT22;7912;51.376;6.126;2022-11-11T03:36:10;10.80;99.90
15625;DHT22;7912;51.376;6.126;2022-11-11T03:42:03;10.80;99.90
15625;DHT22;7912;51.376;6.126;2022-11-11T03:44:30;10.80;99.90
15625;DHT22;7912;51.376;6.126;2022-11-11T03:46:57;10.80;99.90
15625;DHT22;7912;51.376;6.126;2022-11-11T03:49:24;10.70;99.90
15625;DHT22;7912;51.376;6.126;2022-11-11T03:51:52;10.70;99.90
15625;DHT22;7912;51.376;6.126;2022-11-11T03:54:19;10.70;99.90
15625;DHT22;7912;51.376;6.126;2022-11-11T03:56:46;10.70;99.90
15625;DHT22;7912;51.376;6.126;2022-11-11T03:59:13;10.70;99.90
15625;DHT22;7912;51.376;6.126;2022-11-11T04:01:41;10.70;99.90
15625;DHT22;7912;51.376;6.126;2022-11-11T04:04:26;10.60;99.90
15625;DHT22;7912;51.376;6.126;2022-11-11T04:07:12;10.60;99.90
15625;DHT22;7912;51.376;6.126;2022-11-11T04:09:58;10.50;99.90
15625;DHT22;7912;51.376;6.126;2022-11-11T04:12:44;10.50;99.90
15625;DHT22;7912;51.376;6.126;2022-11-11T04:15:31;10.50;99.90
15625;DHT22;7912;51.376;6.126;2022-11-11T04:18:16;10.40;99.90
15625;DHT22;7912;51.376;6.126;2022-11-11T04:20:44;10.40;99.90
15625;DHT22;7912;51.376;6.126;2022-11-11T04:23:30;10.40;99.90
15625;DHT22;7912;51.376;6.126;2022-11-11T04:25:59;10.30;99.90
15625;DHT22;7912;51.376;6.126;2022-11-11T04:28:29;10.30;99.90
15625;DHT22;7912;51.376;6.126;2022-11-11T04:31:14;10.20;99.90
15625;DHT22;7912;51.376;6.126;2022-11-11T04:33:42;10.20;99.90
15625;DHT22;7912;51.376;6.126;2022-11-11T04:36:09;10.10;99.90
15625;DHT22;7912;51.376;6.126;2022-11-11T04:38:37;10.10;99.90
15625;DHT22;7912;51.376;6.126;2022-11-11T04:41:23;10.00;99.90
15625;DHT22;7912;51.376;6.126;2022-11-11T04:44:06;10.00;99.90
15625;DHT22;7912;51.376;6.126;2022-11-11T04:46:52;9.90;99.90
15625;DHT22;7912;51.376;6.126;2022-11-11T04:49:20;9.80;99.90
15625;DHT22;7912;51.376;6.126;2022-11-11T04:51:47;9.80;99.90
15625;DHT22;7912;51.376;6.126;2022-11-11T04:54:33;9.80;99.90
15625;DHT22;7912;51.376;6.126;2022-11-11T04:57:20;9.70;99.90
15625;DHT22;7912;51.376;6.126;2022-11-11T04:59:47;9.70;99.90
15625;DHT22;7912;51.376;6.126;2022-11-11T05:02:15;9.70;99.90
15625;DHT22;7912;51.376;6.126;2022-11-11T05:05:01;9.70;99.90
15625;DHT22;7912;51.376;6.126;2022-11-11T05:07:28;9.60;99.90
15625;DHT22;7912;51.376;6.126;2022-11-11T05:10:14;9.60;99.90
15625;DHT22;7912;51.376;6.126;2022-11-11T05:12:41;9.60;99.90
15625;DHT22;7912;51.376;6.126;2022-11-11T05:15:13;9.70;99.90
15625;DHT22;7912;51.376;6.126;2022-11-11T05:17:59;9.70;99.90
15625;DHT22;7912;51.376;6.126;2022-11-11T05:20:49;9.70;99.90
15625;DHT22;7912;51.376;6.126;2022-11-11T05:23:35;9.70;99.90
15625;DHT22;7912;51.376;6.126;2022-11-11T05:26:21;9.70;99.90
15625;DHT22;7912;51.376;6.126;2022-11-11T05:28:48;9.70;99.90
15625;DHT22;7912;51.376;6.126;2022-11-11T05:31:15;9.70;99.90
15625;DHT22;7912;51.376;6.126;2022-11-11T05:33:42;9.70;99.90
15625;DHT22;7912;51.376;6.126;2022-11-11T05:36:09;9.70;99.90
15625;DHT22;7912;51.376;6.126;2022-11-11T05:38:37;9.70;99.90
15625;DHT22;7912;51.376;6.126;2022-11-11T05:41:05;9.70;99.90
15625;DHT22;7912;51.376;6.126;2022-11-11T05:43:33;9.70;99.90
15625;DHT22;7912;51.376;6.126;2022-11-11T05:46:02;9.80;99.90
15625;DHT22;7912;51.376;6.126;2022-11-11T05:48:31;9.80;99.90
15625;DHT22;7912;51.376;6.126;2022-11-11T05:50:58;9.80;99.90
15625;DHT22;7912;51.376;6.126;2022-11-11T05:53:26;9.80;99.90
15625;DHT22;7912;51.376;6.126;2022-11-11T06:07:09;9.90;99.90
15625;DHT22;7912;51.376;6.126;2022-11-11T06:09:37;9.80;99.90
15625;DHT22;7912;51.376;6.126;2022-11-11T06:12:04;9.80;99.90
15625;DHT22;7912;51.376;6.126;2022-11-11T06:14:31;9.80;99.90
15625;DHT22;7912;51.376;6.126;2022-11-11T06:17:02;9.80;99.90
15625;DHT22;7912;51.376;6.126;2022-11-11T06:19:30;9.80;99.90
15625;DHT22;7912;51.376;6.126;2022-11-11T06:21:57;9.80;99.90
15625;DHT22;7912;51.376;6.126;2022-11-11T06:24:24;9.80;99.90
15625;DHT22;7912;51.376;6.126;2022-11-11T06:26:54;9.70;99.90
15625;DHT22;7912;51.376;6.126;2022-11-11T06:29:21;9.70;99.90
15625;DHT22;7912;51.376;6.126;2022-11-11T06:31:49;9.70;99.90
15625;DHT22;7912;51.376;6.126;2022-11-11T06:34:16;9.70;99.90
15625;DHT22;7912;51.376;6.126;2022-11-11T06:36:44;9.70;99.90
15625;DHT22;7912;51.376;6.126;2022-11-11T06:39:11;9.70;99.90
15625;DHT22;7912;51.376;6.126;2022-11-11T06:41:38;9.70;99.90
15625;DHT22;7912;51.376;6.126;2022-11-11T06:44:06;9.70;99.90
15625;DHT22;7912;51.376;6.126;2022-11-11T06:46:33;9.70;99.90
15625;DHT22;7912;51.376;6.126;2022-11-11T06:49:00;9.60;99.90
15625;DHT22;7912;51.376;6.126;2022-11-11T06:51:28;9.60;99.90
15625;DHT22;7912;51.376;6.126;2022-11-11T06:53:55;9.60;99.90
15625;DHT22;7912;51.376;6.126;2022-11-11T06:56:22;9.60;99.90
15625;DHT22;7912;51.376;6.126;2022-11-11T06:58:50;9.60;99.90
15625;DHT22;7912;51.376;6.126;2022-11-11T07:01:17;9.60;99.90
15625;DHT22;7912;51.376;6.126;2022-11-11T07:03:44;9.60;99.90
15625;DHT22;7912;51.376;6.126;2022-11-11T07:06:12;9.50;99.90
15625;DHT22;7912;51.376;6.126;2022-11-11T07:08:39;9.50;99.90
15625;DHT22;7912;51.376;6.126;2022-11-11T07:11:10;9.60;99.90
15625;DHT22;7912;51.376;6.126;2022-11-11T07:13:44;9.50;99.90
15625;DHT22;7912;51.376;6.126;2022-11-11T07:16:12;9.50;99.90
15625;DHT22;7912;51.376;6.126;2022-11-11T07:18:39;9.50;99.90
15625;DHT22;7912;51.376;6.126;2022-11-11T07:21:07;9.50;99.90
15625;DHT22;7912;51.376;6.126;2022-11-11T07:23:35;9.50;99.90
15625;DHT22;7912;51.376;6.126;2022-11-11T07:26:02;9.50;99.90
15625;DHT22;7912;51.376;6.126;2022-11-11T07:28:32;9.60;99.90
15625;DHT22;7912;51.376;6.126;2022-11-11T07:30:59;9.60;99.90
15625;DHT22;7912;51.376;6.126;2022-11-11T07:33:27;9.60;99.90
15625;DHT22;7912;51.376;6.126;2022-11-11T07:35:54;9.70;99.90
15625;DHT22;7912;51.376;6.126;2022-11-11T07:38:43;9.70;99.90
15625;DHT22;7912;51.376;6.126;2022-11-11T07:41:13;9.70;99.90
15625;DHT22;7912;51.376;6.126;2022-11-11T07:43:40;9.70;99.90
15625;DHT22;7912;51.376;6.126;2022-11-11T07:46:08;9.80;99.90
15625;DHT22;7912;51.376;6.126;2022-11-11T07:48:35;9.80;99.90
15625;DHT22;7912;51.376;6.126;2022-11-11T07:51:03;9.90;99.90
15625;DHT22;7912;51.376;6.126;2022-11-11T07:53:30;9.90;99.90
15625;DHT22;7912;51.376;6.126;2022-11-11T07:55:57;10.00;99.90
15625;DHT22;7912;51.376;6.126;2022-11-11T07:58:24;10.10;99.90
15625;DHT22;7912;51.376;6.126;2022-11-11T08:00:53;10.10;99.90
15625;DHT22;7912;51.376;6.126;2022-11-11T08:03:20;10.10;99.90
15625;DHT22;7912;51.376;6.126;2022-11-11T08:05:48;10.20;99.90
15625;DHT22;7912;51.376;6.126;2022-11-11T08:08:16;10.30;99.90
15625;DHT22;7912;51.376;6.126;2022-11-11T08:10:43;10.30;99.90
15625;DHT22;7912;51.376;6.126;2022-11-11T08:13:11;10.40;99.90
15625;DHT22;7912;51.376;6.126;2022-11-11T08:15:57;10.50;99.90
15625;DHT22;7912;51.376;6.126;2022-11-11T08:18:25;10.50;99.90
15625;DHT22;7912;51.376;6.126;2022-11-11T08:20:53;10.50;99.90
15625;DHT22;7912;51.376;6.126;2022-11-11T08:23:21;10.60;99.90
15625;DHT22;7912;51.376;6.126;2022-11-11T08:26:19;10.70;99.90
15625;DHT22;7912;51.376;6.126;2022-11-11T08:28:56;10.70;99.90
15625;DHT22;7912;51.376;6.126;2022-11-11T08:31:24;10.80;99.90
15625;DHT22;7912;51.376;6.126;2022-11-11T08:33:53;10.90;99.90
15625;DHT22;7912;51.376;6.126;2022-11-11T08:36:21;10.90;99.90
15625;DHT22;7912;51.376;6.126;2022-11-11T08:38:51;11.00;99.90
15625;DHT22;7912;51.376;6.126;2022-11-11T08:41:18;11.10;99.90
15625;DHT22;7912;51.376;6.126;2022-11-11T08:43:50;11.20;99.90
15625;DHT22;7912;51.376;6.126;2022-11-11T08:46:22;11.30;99.90
15625;DHT22;7912;51.376;6.126;2022-11-11T08:48:50;11.40;99.90
15625;DHT22;7912;51.376;6.126;2022-11-11T08:51:17;11.40;99.90
15625;DHT22;7912;51.376;6.126;2022-11-11T08:53:45;11.50;99.90
15625;DHT22;7912;51.376;6.126;2022-11-11T08:56:12;11.70;99.90
15625;DHT22;7912;51.376;6.126;2022-11-11T08:58:40;11.80;99.90
15625;DHT22;7912;51.376;6.126;2022-11-11T09:01:12;11.90;99.90
15625;DHT22;7912;51.376;6.126;2022-11-11T09:03:41;12.00;99.90
15625;DHT22;7912;51.376;6.126;2022-11-11T09:06:10;12.10;99.90
15625;DHT22;7912;51.376;6.126;2022-11-11T09:08:41;12.20;99.90
15625;DHT22;7912;51.376;6.126;2022-11-11T09:11:12;12.30;99.90
15625;DHT22;7912;51.376;6.126;2022-11-11T09:13:39;12.40;99.90
15625;DHT22;7912;51.376;6.126;2022-11-11T09:16:08;12.50;99.90
15625;DHT22;7912;51.376;6.126;2022-11-11T09:18:35;12.60;99.90
15625;DHT22;7912;51.376;6.126;2022-11-11T09:21:05;12.70;99.90
15625;DHT22;7912;51.376;6.126;2022-11-11T09:23:33;12.80;99.90
15625;DHT22;7912;51.376;6.126;2022-11-11T09:29:24;13.00;99.90
15625;DHT22;7912;51.376;6.126;2022-11-11T09:31:51;13.20;99.90
15625;DHT22;7912;51.376;6.126;2022-11-11T09:34:19;13.30;99.90
15625;DHT22;7912;51.376;6.126;2022-11-11T09:36:46;13.40;99.90
15625;DHT22;7912;51.376;6.126;2022-11-11T09:39:13;13.40;99.90
15625;DHT22;7912;51.376;6.126;2022-11-11T09:42:13;13.60;99.90
15625;DHT22;7912;51.376;6.126;2022-11-11T09:45:32;13.70;99.90
15625;DHT22;7912;51.376;6.126;2022-11-11T09:51:06;13.90;99.90
15625;DHT22;7912;51.376;6.126;2022-11-11T09:53:43;14.10;99.90
15625;DHT22;7912;51.376;6.126;2022-11-11T09:56:21;14.20;99.90
15625;DHT22;7912;51.376;6.126;2022-11-11T10:01:55;14.40;99.90
15625;DHT22;7912;51.376;6.126;2022-11-11T10:12:54;14.80;99.90
15625;DHT22;7912;51.376;6.126;2022-11-11T10:15:27;14.90;99.90
15625;DHT22;7912;51.376;6.126;2022-11-11T10:20:48;15.00;99.90
15625;DHT22;7912;51.376;6.126;2022-11-11T10:23:31;15.10;99.90
15625;DHT22;7912;51.376;6.126;2022-11-11T10:26:28;15.20;99.90
15625;DHT22;7912;51.376;6.126;2022-11-11T10:29:14;15.40;99.90
15625;DHT22;7912;51.376;6.126;2022-11-11T10:32:01;15.50;99.90
15625;DHT22;7912;51.376;6.126;2022-11-11T10:34:38;15.60;99.90
15625;DHT22;7912;51.376;6.126;2022-11-11T10:37:20;15.70;99.90
15625;DHT22;7912;51.376;6.126;2022-11-11T10:42:38;16.00;99.90
15625;DHT22;7912;51.376;6.126;2022-11-11T10:45:38;16.10;99.90
15625;DHT22;7912;51.376;6.126;2022-11-11T10:48:36;16.30;99.90
15625;DHT22;7912;51.376;6.126;2022-11-11T10:51:10;16.40;99.90
15625;DHT22;7912;51.376;6.126;2022-11-11T11:00:06;16.80;99.90
15625;DHT22;7912;51.376;6.126;2022-11-11T11:03:11;16.90;99.90
15625;DHT22;7912;51.376;6.126;2022-11-11T11:06:13;17.10;99.90
15625;DHT22;7912;51.376;6.126;2022-11-11T11:09:25;17.30;99.90
15625;DHT22;7912;51.376;6.126;2022-11-11T11:12:02;17.40;99.90
15625;DHT22;7912;51.376;6.126;2022-11-11T11:14:47;17.60;99.90
15625;DHT22;7912;51.376;6.126;2022-11-11T11:17:27;17.70;99.90
15625;DHT22;7912;51.376;6.126;2022-11-11T11:20:18;17.80;99.90
15625;DHT22;7912;51.376;6.126;2022-11-11T11:25:19;18.00;99.90
15625;DHT22;7912;51.376;6.126;2022-11-11T11:27:50;18.10;99.90
15625;DHT22;7912;51.376;6.126;2022-11-11T11:30:21;18.10;99.90
15625;DHT22;7912;51.376;6.126;2022-11-11T11:32:59;18.20;99.90
15625;DHT22;7912;51.376;6.126;2022-11-11T11:35:37;18.30;99.90
15625;DHT22;7912;51.376;6.126;2022-11-11T11:38:08;18.40;99.90
15625;DHT22;7912;51.376;6.126;2022-11-11T11:40:48;18.50;99.90
15625;DHT22;7912;51.376;6.126;2022-11-11T11:43:39;18.60;99.90
15625;DHT22;7912;51.376;6.126;2022-11-11T11:46:17;18.70;99.90
15625;DHT22;7912;51.376;6.126;2022-11-11T11:54:16;18.90;99.20
15625;DHT22;7912;51.376;6.126;2022-11-11T11:56:49;19.00;99.60
15625;DHT22;7912;51.376;6.126;2022-11-11T11:59:38;19.00;99.30
15625;DHT22;7912;51.376;6.126;2022-11-11T12:05:44;19.10;98.50
15625;DHT22;7912;51.376;6.126;2022-11-11T12:09:36;19.20;98.70
15625;DHT22;7912;51.376;6.126;2022-11-11T12:21:13;19.40;98.80
15625;DHT22;7912;51.376;6.126;2022-11-11T12:26:36;19.50;97.40
15625;DHT22;7912;51.376;6.126;2022-11-11T12:32:24;19.60;97.30
15625;DHT22;7912;51.376;6.126;2022-11-11T12:41:22;19.60;96.00
15625;DHT22;7912;51.376;6.126;2022-11-11T12:44:10;19.60;96.60
15625;DHT22;7912;51.376;6.126;2022-11-11T13:01:37;19.60;95.50
15625;DHT22;7912;51.376;6.126;2022-11-11T13:10:14;19.70;95.10
15625;DHT22;7912;51.376;6.126;2022-11-11T13:13:01;19.70;95.60
15625;DHT22;7912;51.376;6.126;2022-11-11T13:15:48;19.70;95.70
15625;DHT22;7912;51.376;6.126;2022-11-11T13:18:25;19.70;95.70
15625;DHT22;7912;51.376;6.126;2022-11-11T13:20:59;19.70;95.50
15625;DHT22;7912;51.376;6.126;2022-11-11T13:23:30;19.70;95.50
15625;DHT22;7912;51.376;6.126;2022-11-11T13:26:02;19.70;95.70
15625;DHT22;7912;51.376;6.126;2022-11-11T13:28:36;19.70;95.40
15625;DHT22;7912;51.376;6.126;2022-11-11T13:31:33;19.70;95.50
15625;DHT22;7912;51.376;6.126;2022-11-11T13:34:10;19.80;95.20
15625;DHT22;7912;51.376;6.126;2022-11-11T13:36:44;19.90;95.20
15625;DHT22;7912;51.376;6.126;2022-11-11T13:39:28;20.00;95.30
15625;DHT22;7912;51.376;6.126;2022-11-11T13:41:58;20.20;95.00
15625;DHT22;7912;51.376;6.126;2022-11-11T13:44:38;20.30;95.50
15625;DHT22;7912;51.376;6.126;2022-11-11T13:47:24;20.50;94.80
15625;DHT22;7912;51.376;6.126;2022-11-11T13:49:59;20.70;94.20
15625;DHT22;7912;51.376;6.126;2022-11-11T13:53:03;20.80;93.90
15625;DHT22;7912;51.376;6.126;2022-11-11T13:55:40;21.00;93.90
15625;DHT22;7912;51.376;6.126;2022-11-11T13:58:38;21.00;93.40
15625;DHT22;7912;51.376;6.126;2022-11-11T14:01:10;21.20;93.10
15625;DHT22;7912;51.376;6.126;2022-11-11T14:11:29;21.30;92.60
15625;DHT22;7912;51.376;6.126;2022-11-11T14:17:03;21.20;92.30
15625;DHT22;7912;51.376;6.126;2022-11-11T14:19:34;21.20;92.70
15625;DHT22;7912;51.376;6.126;2022-11-11T14:22:27;21.20;92.80
15625;DHT22;7912;51.376;6.126;2022-11-11T14:25:32;21.10;92.00
15625;DHT22;7912;51.376;6.126;2022-11-11T14:36:54;20.90;93.00
15625;DHT22;7912;51.376;6.126;2022-11-11T15:18:28;18.70;95.30
15625;DHT22;7912;51.376;6.126;2022-11-11T15:21:32;18.40;95.60
15625;DHT22;7912;51.376;6.126;2022-11-11T15:24:48;18.20;95.60
15625;DHT22;7912;51.376;6.126;2022-11-11T15:27:37;18.00;95.70
15625;DHT22;7912;51.376;6.126;2022-11-11T15:30:40;17.80;96.20
15625;DHT22;7912;51.376;6.126;2022-11-11T15:33:27;17.60;96.30
15625;DHT22;7912;51.376;6.126;2022-11-11T15:36:30;17.40;96.50
15625;DHT22;7912;51.376;6.126;2022-11-11T15:39:18;17.10;96.90
15625;DHT22;7912;51.376;6.126;2022-11-11T15:41:50;17.00;97.40
15625;DHT22;7912;51.376;6.126;2022-11-11T15:44:26;16.80;97.70
15625;DHT22;7912;51.376;6.126;2022-11-11T15:46:57;16.60;98.20
15625;DHT22;7912;51.376;6.126;2022-11-11T15:49:45;16.40;98.60
15625;DHT22;7912;51.376;6.126;2022-11-11T15:52:32;16.30;99.30
15625;DHT22;7912;51.376;6.126;2022-11-11T15:55:22;16.10;99.50
15625;DHT22;7912;51.376;6.126;2022-11-11T15:57:52;15.80;99.90
15625;DHT22;7912;51.376;6.126;2022-11-11T16:02:52;15.70;99.90
15625;DHT22;7912;51.376;6.126;2022-11-11T16:05:24;15.60;99.90
15625;DHT22;7912;51.376;6.126;2022-11-11T16:07:55;15.60;99.90
15625;DHT22;7912;51.376;6.126;2022-11-11T16:10:36;15.50;99.90
15625;DHT22;7912;51.376;6.126;2022-11-11T16:13:20;15.40;99.90
15625;DHT22;7912;51.376;6.126;2022-11-11T16:16:09;15.30;99.90
15625;DHT22;7912;51.376;6.126;2022-11-11T16:18:55;15.20;99.90
15625;DHT22;7912;51.376;6.126;2022-11-11T16:21:31;15.10;99.90
15625;DHT22;7912;51.376;6.126;2022-11-11T16:24:02;15.00;99.90
15625;DHT22;7912;51.376;6.126;2022-11-11T16:26:47;14.90;99.90
15625;DHT22;7912;51.376;6.126;2022-11-11T16:29:15;14.80;99.90
15625;DHT22;7912;51.376;6.126;2022-11-11T16:31:45;14.80;99.90
15625;DHT22;7912;51.376;6.126;2022-11-11T16:36:58;14.60;99.90
15625;DHT22;7912;51.376;6.126;2022-11-11T16:39:29;14.50;99.90
15625;DHT22;7912;51.376;6.126;2022-11-11T16:41:59;14.40;99.90
15625;DHT22;7912;51.376;6.126;2022-11-11T16:44:44;14.40;99.90
15625;DHT22;7912;51.376;6.126;2022-11-11T16:50:23;14.10;99.90
15625;DHT22;7912;51.376;6.126;2022-11-11T16:53:00;14.00;99.90
15625;DHT22;7912;51.376;6.126;2022-11-11T16:55:44;14.00;99.90
15625;DHT22;7912;51.376;6.126;2022-11-11T17:00:46;13.70;99.90
15625;DHT22;7912;51.376;6.126;2022-11-11T17:09:40;13.50;99.90
15625;DHT22;7912;51.376;6.126;2022-11-11T17:12:09;13.40;99.90
15625;DHT22;7912;51.376;6.126;2022-11-11T17:14:41;13.30;99.90
15625;DHT22;7912;51.376;6.126;2022-11-11T17:17:12;13.20;99.90
15625;DHT22;7912;51.376;6.126;2022-11-11T17:19:39;13.10;99.90
15625;DHT22;7912;51.376;6.126;2022-11-11T17:22:09;13.00;99.90
15625;DHT22;7912;51.376;6.126;2022-11-11T17:24:38;13.00;99.90
15625;DHT22;7912;51.376;6.126;2022-11-11T17:27:06;12.90;99.90
15625;DHT22;7912;51.376;6.126;2022-11-11T17:29:34;12.90;99.90
15625;DHT22;7912;51.376;6.126;2022-11-11T17:32:05;12.80;99.90
15625;DHT22;7912;51.376;6.126;2022-11-11T17:34:37;12.70;99.90
15625;DHT22;7912;51.376;6.126;2022-11-11T17:37:05;12.70;99.90
15625;DHT22;7912;51.376;6.126;2022-11-11T17:39:32;12.70;99.90
15625;DHT22;7912;51.376;6.126;2022-11-11T17:41:59;12.60;99.90
15625;DHT22;7912;51.376;6.126;2022-11-11T17:44:28;12.60;99.90
15625;DHT22;7912;51.376;6.126;2022-11-11T17:46:55;12.50;99.90
15625;DHT22;7912;51.376;6.126;2022-11-11T17:49:22;12.40;99.90
15625;DHT22;7912;51.376;6.126;2022-11-11T17:52:10;12.40;99.90
15625;DHT22;7912;51.376;6.126;2022-11-11T17:54:37;12.30;99.90
15625;DHT22;7912;51.376;6.126;2022-11-11T17:57:05;12.30;99.90
15625;DHT22;7912;51.376;6.126;2022-11-11T17:59:32;12.20;99.90
15625;DHT22;7912;51.376;6.126;2022-11-11T18:02:00;12.20;99.90
15625;DHT22;7912;51.376;6.126;2022-11-11T18:04:30;12.10;99.90
15625;DHT22;7912;51.376;6.126;2022-11-11T18:06:57;12.10;99.90
15625;DHT22;7912;51.376;6.126;2022-11-11T18:09:25;12.10;99.90
15625;DHT22;7912;51.376;6.126;2022-11-11T18:11:52;12.00;99.90
15625;DHT22;7912;51.376;6.126;2022-11-11T18:14:20;11.90;99.90
15625;DHT22;7912;51.376;6.126;2022-11-11T18:16:47;11.90;99.90
15625;DHT22;7912;51.376;6.126;2022-11-11T18:19:14;11.80;99.90
15625;DHT22;7912;51.376;6.126;2022-11-11T18:21:43;11.80;99.90
15625;DHT22;7912;51.376;6.126;2022-11-11T18:24:10;11.70;99.90
15625;DHT22;7912;51.376;6.126;2022-11-11T18:26:38;11.60;99.90
15625;DHT22;7912;51.376;6.126;2022-11-11T18:32:14;11.60;99.90
15625;DHT22;7912;51.376;6.126;2022-11-11T18:34:41;11.50;99.90
15625;DHT22;7912;51.376;6.126;2022-11-11T18:37:08;11.50;99.90
15625;DHT22;7912;51.376;6.126;2022-11-11T18:39:35;11.40;99.90
15625;DHT22;7912;51.376;6.126;2022-11-11T18:42:03;11.40;99.90
15625;DHT22;7912;51.376;6.126;2022-11-11T18:44:30;11.40;99.90
15625;DHT22;7912;51.376;6.126;2022-11-11T18:46:58;11.30;99.90
15625;DHT22;7912;51.376;6.126;2022-11-11T18:49:25;11.30;99.90
15625;DHT22;7912;51.376;6.126;2022-11-11T18:51:52;11.20;99.90
15625;DHT22;7912;51.376;6.126;2022-11-11T18:54:20;11.20;99.90
15625;DHT22;7912;51.376;6.126;2022-11-11T18:56:54;11.20;99.90
15625;DHT22;7912;51.376;6.126;2022-11-11T18:59:21;11.10;99.90
15625;DHT22;7912;51.376;6.126;2022-11-11T19:01:49;11.10;99.90
15625;DHT22;7912;51.376;6.126;2022-11-11T19:04:21;11.10;99.90
15625;DHT22;7912;51.376;6.126;2022-11-11T19:06:48;11.00;99.90
15625;DHT22;7912;51.376;6.126;2022-11-11T19:09:15;11.00;99.90
15625;DHT22;7912;51.376;6.126;2022-11-11T19:11:44;10.90;99.90
15625;DHT22;7912;51.376;6.126;2022-11-11T19:14:13;10.90;99.90
15625;DHT22;7912;51.376;6.126;2022-11-11T19:16:48;10.90;99.90
15625;DHT22;7912;51.376;6.126;2022-11-11T19:19:15;10.90;99.90
15625;DHT22;7912;51.376;6.126;2022-11-11T19:21:43;10.80;99.90
15625;DHT22;7912;51.376;6.126;2022-11-11T19:24:11;10.80;99.90
15625;DHT22;7912;51.376;6.126;2022-11-11T19:26:41;10.70;99.90
15625;DHT22;7912;51.376;6.126;2022-11-11T19:29:09;10.70;99.90
15625;DHT22;7912;51.376;6.126;2022-11-11T19:31:38;10.70;99.90
15625;DHT22;7912;51.376;6.126;2022-11-11T19:34:05;10.60;99.90
15625;DHT22;7912;51.376;6.126;2022-11-11T19:36:33;10.60;99.90
15625;DHT22;7912;51.376;6.126;2022-11-11T19:39:04;10.60;99.90
15625;DHT22;7912;51.376;6.126;2022-11-11T19:41:32;10.60;99.90
15625;DHT22;7912;51.376;6.126;2022-11-11T19:43:59;10.50;99.90
15625;DHT22;7912;51.376;6.126;2022-11-11T19:46:27;10.50;99.90
15625;DHT22;7912;51.376;6.126;2022-11-11T19:48:57;10.50;99.90